Amesbury, MA

9:45 PM EDT on October 24, 2014 (GMT -0400)
Beverly Municipal | Change Station
CLOSE
Current Station
Airport
Location: Beverly,
Elevation: 108 ft
Nearby Weather Stations

Elev 108 ft 42.58 °N, 70.92 °W | Updated 25 minutes ago

Overcast
Overcast
49 °F
Feels Like 49 °F
N
10
Wind Variable Wind from NW

Today
High -- | Low -- °F
--% Chance of Precip.
Yesterday
High -- | Low -- °F
Precip. -- in
7:07 AM 5:47 PM
New Moon, 1% visible
Pressure 29.73 in
Visibility 10.0 miles
Clouds Mostly Cloudy 2800 ft
Mostly Cloudy 3300 ft
Overcast 4200 ft
Dew Point 41 °F
Humidity 74%
Rainfall 0.05 in
Snow Depth Not available.
UV 0 out of 12
Pollen .30 out of 12
PM2.5 Good
Flu Activity Sporadic
SPECI KBVY 250120Z AUTO 32009KT 10SM BKN028 BKN033 OVC042 09/05 A2973 RMK AO2 T00940050

More Conditions Fewer Conditions

Pressure 29.73 in
Visibility 10.0 miles
Clouds Mostly Cloudy 2800 ft
Mostly Cloudy 3300 ft
Overcast 4200 ft
Dew Point 41 °F
Humidity 74%
Rainfall 0.05 in
Snow Depth Not available.
UV 0 out of 12
Pollen .30 out of 12
PM2.5 Good
Flu Activity Sporadic
SPECI KBVY 250120Z AUTO 32009KT 10SM BKN028 BKN033 OVC042 09/05 A2973 RMK AO2 T00940050

More Conditions Fewer Conditions

10-Day Weather Forecast

Almanac

Astronomy

Oct. 24, 2014 Rise Set
Actual Time 7:07 AM EDT 5:47 PM EDT
Civil Twilight 6:38 AM EDT 6:16 PM EDT
Nautical Twilight 6:05 AM EDT 6:49 PM EDT
Astronomical Twilight 5:33 AM EDT 7:21 PM EDT
Moon 7:44 AM EDT (10/24) 6:24 PM EDT (10/24)
Length of Visible Light 11h 37m
Length of Day
10h 39m
Tomorrow will be 2m 43s shorter.
New Moon, 1% of the Moon is Illuminated
Today
New Moon
Oct 30
First Quarter
Nov 6
Full
Nov 14
Last Quarter
Nov 22
New

Today's Extremes

State Highs State Lows

Community

WunderPhotos

Upload Photos

1,764,749 photos uploaded!

WunderBlogs® & News

Nearby

Air Quality

  Air Quality AQ Index Pollutant
Yesterday Good
OZONE
Yesterday Good
PM2.5
Current Good
PM2.5
Friday Good
PM2.5
Friday Good
OZONE
Saturday Good
PM2.5
Saturday Good
OZONE

Snow Depth

Station Depth Elevation
No new snow has been reported.

Earthquake Activity

City Distance Mag. Time & Date
No recent earthquake activity has been reported nearby.
Minimum magnitude displayed is 2.5.

Coastal Water Temperatures

Place Temperature
Wells, ME 51.1 °F
Portland, ME 54.0 °F

Nearby Weather Stations